Time;durP1;ratioP1;P1;durP2;ratioP2;P2;SDS_P1;SDS_P2;PMS_P1;PMS_P2;Temp;Humidity;BMP_temperature;BMP_pressure;BME280_temperature;BME280_humidity;BME280_pressure;Samples;Min_cycle;Max_cycle;Signal;HPM_P1;HPM_P2
2023/10/21 00:00:33;;;;;;;4.43;2.97;;;;;;;;;;5063110;27;87933;-52
2023/10/21 00:03:01;;;;;;;7.60;2.97;;;;;;;;;;5062957;27;89693;-52
2023/10/21 00:05:31;;;;;;;4.03;2.50;;;;;;;;;;5063435;27;89293;-52
2023/10/21 00:07:59;;;;;;;5.00;3.27;;;;;;;;;;5056516;27;87672;-53
2023/10/21 00:10:28;;;;;;;5.50;2.40;;;;;;;;;;5063543;27;87358;-52
2023/10/21 00:12:56;;;;;;;3.30;2.43;;;;;;;;;;5063029;27;88539;-52
2023/10/21 00:15:25;;;;;;;6.47;3.37;;;;;;;;;;5062185;27;88701;-53
2023/10/21 00:17:53;;;;;;;9.20;3.43;;;;;;;;;;5063492;27;88616;-53
2023/10/21 00:20:22;;;;;;;4.53;2.50;;;;;;;;;;5060747;27;88025;-52
2023/10/21 00:22:51;;;;;;;3.43;2.57;;;;;;;;;;5062560;27;88586;-53
2023/10/21 00:25:20;;;;;;;3.67;3.17;;;;;;;;;;5062739;27;88242;-53
2023/10/21 00:27:48;;;;;;;5.77;3.43;;;;;;;;;;5060166;27;88940;-52
2023/10/21 00:30:16;;;;;;;6.57;3.57;;;;;;;;;;5062772;27;87604;-53
2023/10/21 00:32:45;;;;;;;5.23;3.67;;;;;;;;;;5062854;27;89891;-53
2023/10/21 00:35:14;;;;;;;6.23;3.53;;;;;;;;;;5063429;27;88158;-52
2023/10/21 00:37:42;;;;;;;7.97;3.70;;;;;;;;;;5062764;27;87776;-53
2023/10/21 00:40:13;;;;;;;5.30;3.70;;;;;;;;;;5059915;27;88480;-52
2023/10/21 00:42:41;;;;;;;5.40;3.37;;;;;;;;;;5061933;27;88563;-52
2023/10/21 00:45:09;;;;;;;4.57;3.30;;;;;;;;;;5062765;27;88053;-52
2023/10/21 00:47:38;;;;;;;4.00;2.60;;;;;;;;;;5062243;27;88863;-52
2023/10/21 00:50:07;;;;;;;4.47;3.30;;;;;;;;;;5060101;27;87644;-52
2023/10/21 00:52:35;;;;;;;5.93;3.20;;;;;;;;;;5062276;27;89608;-52
2023/10/21 00:55:04;;;;;;;4.50;3.40;;;;;;;;;;5062131;27;88067;-52
2023/10/21 00:57:34;;;;;;;8.13;3.90;;;;;;;;;;5062317;27;88825;-52
2023/10/21 01:00:02;;;;;;;6.33;4.40;;;;;;;;;;5062813;27;87689;-52
2023/10/21 01:02:31;;;;;;;4.93;3.73;;;;;;;;;;5062514;27;89824;-52
2023/10/21 01:04:59;;;;;;;8.93;4.03;;;;;;;;;;5062280;27;90032;-52
2023/10/21 01:07:28;;;;;;;6.00;4.60;;;;;;;;;;5059168;27;89722;-53
2023/10/21 01:09:56;;;;;;;5.57;4.03;;;;;;;;;;5061388;27;88954;-52
2023/10/21 01:12:24;;;;;;;5.53;4.10;;;;;;;;;;5061780;27;88501;-52
2023/10/21 01:14:54;;;;;;;8.77;4.63;;;;;;;;;;5062417;27;88994;-52
2023/10/21 01:17:22;;;;;;;16.67;4.70;;;;;;;;;;5062041;27;88902;-52
2023/10/21 01:19:51;;;;;;;5.87;4.37;;;;;;;;;;5062477;27;87498;-52
2023/10/21 01:22:19;;;;;;;6.27;4.57;;;;;;;;;;5061636;27;88587;-52
2023/10/21 01:24:49;;;;;;;7.23;4.53;;;;;;;;;;5059532;27;89072;-53
2023/10/21 01:27:17;;;;;;;6.53;4.23;;;;;;;;;;5060137;27;87732;-52
2023/10/21 01:29:45;;;;;;;7.20;4.80;;;;;;;;;;5060992;27;88000;-52
2023/10/21 01:32:14;;;;;;;6.27;4.70;;;;;;;;;;5061738;27;88761;-52
2023/10/21 01:34:42;;;;;;;9.10;5.23;;;;;;;;;;5061733;27;87313;-52
2023/10/21 01:37:11;;;;;;;9.53;5.03;;;;;;;;;;5057380;27;89052;-52
2023/10/21 01:39:39;;;;;;;8.60;5.10;;;;;;;;;;5061621;27;87866;-52
2023/10/21 01:42:09;;;;;;;6.70;4.90;;;;;;;;;;5057928;27;88507;-52
2023/10/21 01:44:37;;;;;;;6.43;4.10;;;;;;;;;;5060890;27;88888;-53
2023/10/21 01:47:06;;;;;;;9.27;5.27;;;;;;;;;;5060681;27;88808;-52
2023/10/21 01:49:34;;;;;;;7.53;5.27;;;;;;;;;;5060809;27;87620;-52
2023/10/21 01:52:03;;;;;;;7.70;5.03;;;;;;;;;;5060544;27;88609;-53
2023/10/21 01:54:32;;;;;;;12.47;6.63;;;;;;;;;;5060113;27;90005;-52
2023/10/21 01:57:00;;;;;;;9.27;5.53;;;;;;;;;;5061331;27;89936;-52
2023/10/21 01:59:30;;;;;;;8.93;6.27;;;;;;;;;;5060440;27;87626;-52
2023/10/21 02:01:58;;;;;;;9.07;5.70;;;;;;;;;;5061519;27;88553;-52
2023/10/21 02:04:26;;;;;;;11.57;5.83;;;;;;;;;;5062030;27;89072;-52
2023/10/21 02:06:55;;;;;;;8.63;5.40;;;;;;;;;;5062271;27;87377;-52
2023/10/21 02:09:23;;;;;;;11.90;6.60;;;;;;;;;;5061843;27;87622;-53
2023/10/21 02:11:53;;;;;;;13.63;6.73;;;;;;;;;;5062589;27;89539;-52
2023/10/21 02:14:22;;;;;;;8.90;6.23;;;;;;;;;;5061586;27;89169;-52
2023/10/21 02:16:52;;;;;;;11.20;6.43;;;;;;;;;;5062519;27;87728;-53
2023/10/21 02:19:20;;;;;;;11.60;6.47;;;;;;;;;;5061536;27;87790;-52
2023/10/21 02:21:48;;;;;;;8.37;5.97;;;;;;;;;;5061836;27;88508;-52
2023/10/21 02:24:17;;;;;;;11.20;6.73;;;;;;;;;;5061547;27;87454;-52
2023/10/21 02:26:45;;;;;;;12.50;7.47;;;;;;;;;;5054162;27;88775;-53
2023/10/21 02:29:14;;;;;;;11.97;6.50;;;;;;;;;;5054557;27;87802;-52
2023/10/21 02:31:42;;;;;;;15.53;7.27;;;;;;;;;;5060284;27;88586;-52
2023/10/21 02:34:12;;;;;;;18.33;7.57;;;;;;;;;;5060177;27;87810;-52
2023/10/21 02:36:40;;;;;;;12.17;7.83;;;;;;;;;;5060541;27;87755;-52
2023/10/21 02:39:08;;;;;;;12.30;7.27;;;;;;;;;;5059636;27;87687;-52
2023/10/21 02:41:37;;;;;;;10.67;6.50;;;;;;;;;;5060044;27;88707;-52
2023/10/21 02:44:06;;;;;;;12.37;7.57;;;;;;;;;;5059488;27;88045;-53
2023/10/21 02:46:34;;;;;;;9.97;7.20;;;;;;;;;;5061479;27;89734;-53
2023/10/21 02:49:02;;;;;;;13.20;7.07;;;;;;;;;;5061420;27;87792;-53
2023/10/21 02:51:32;;;;;;;10.47;7.17;;;;;;;;;;5061549;27;89692;-52
2023/10/21 02:54:01;;;;;;;11.63;7.30;;;;;;;;;;5060500;27;88012;-51
2023/10/21 02:56:29;;;;;;;12.83;8.00;;;;;;;;;;5060761;27;87812;-52
2023/10/21 02:58:58;;;;;;;11.13;6.87;;;;;;;;;;5060898;27;87629;-53
2023/10/21 03:01:27;;;;;;;14.73;8.20;;;;;;;;;;5060504;27;88691;-52
2023/10/21 03:03:55;;;;;;;12.67;7.37;;;;;;;;;;5057966;27;88252;-52
2023/10/21 03:06:24;;;;;;;12.13;7.50;;;;;;;;;;5060180;27;88919;-53
2023/10/21 03:08:53;;;;;;;11.93;8.03;;;;;;;;;;5059575;27;87987;-53
2023/10/21 03:11:23;;;;;;;11.20;7.27;;;;;;;;;;5060091;27;88564;-52
2023/10/21 03:13:52;;;;;;;9.93;7.00;;;;;;;;;;5059811;27;88201;-53
2023/10/21 03:16:20;;;;;;;12.47;7.07;;;;;;;;;;5060632;27;87578;-52
2023/10/21 03:18:48;;;;;;;11.57;7.27;;;;;;;;;;5060162;27;87489;-52
2023/10/21 03:21:17;;;;;;;13.13;6.53;;;;;;;;;;5060776;27;88558;-52
2023/10/21 03:23:45;;;;;;;11.70;7.37;;;;;;;;;;5059942;27;89160;-53
2023/10/21 03:26:15;;;;;;;12.77;7.77;;;;;;;;;;5059065;27;89231;-52
2023/10/21 03:28:44;;;;;;;13.80;8.67;;;;;;;;;;5060066;27;87682;-53
2023/10/21 03:31:13;;;;;;;13.20;7.70;;;;;;;;;;5059986;27;89860;-53
2023/10/21 03:33:41;;;;;;;18.90;7.80;;;;;;;;;;5059416;27;90095;-52
2023/10/21 03:36:09;;;;;;;11.97;8.10;;;;;;;;;;5060479;27;88600;-53
2023/10/21 03:38:38;;;;;;;12.73;8.33;;;;;;;;;;5060030;27;87660;-53
2023/10/21 03:41:07;;;;;;;15.60;7.73;;;;;;;;;;5057498;27;89875;-54
2023/10/21 03:43:37;;;;;;;13.73;8.93;;;;;;;;;;5060005;27;89158;-53
2023/10/21 03:46:05;;;;;;;11.17;7.60;;;;;;;;;;5057574;27;88818;-53
2023/10/21 03:48:34;;;;;;;11.33;7.90;;;;;;;;;;5056066;27;87658;-54
2023/10/21 03:51:04;;;;;;;11.23;7.93;;;;;;;;;;5057789;27;89615;-53
2023/10/21 03:53:32;;;;;;;13.77;8.93;;;;;;;;;;5054795;27;87746;-53
2023/10/21 03:56:01;;;;;;;12.67;8.83;;;;;;;;;;5057822;27;87788;-52
2023/10/21 03:58:29;;;;;;;14.47;9.57;;;;;;;;;;5056917;27;88448;-52
2023/10/21 04:00:59;;;;;;;11.47;7.93;;;;;;;;;;5057289;27;89734;-52
2023/10/21 04:03:28;;;;;;;12.60;8.57;;;;;;;;;;5057333;27;88073;-52
2023/10/21 04:05:57;;;;;;;13.73;9.23;;;;;;;;;;5057614;27;88485;-52
2023/10/21 04:08:25;;;;;;;14.80;8.93;;;;;;;;;;5057646;27;87714;-52
2023/10/21 04:10:54;;;;;;;13.63;8.70;;;;;;;;;;5056522;27;88679;-52
2023/10/21 04:13:23;;;;;;;14.47;9.20;;;;;;;;;;5056928;27;88140;-52
2023/10/21 04:15:51;;;;;;;11.27;8.17;;;;;;;;;;5057758;27;87780;-52
2023/10/21 04:18:21;;;;;;;10.50;8.27;;;;;;;;;;5057247;27;87985;-53
2023/10/21 04:20:49;;;;;;;16.00;8.43;;;;;;;;;;5056047;27;89643;-53
2023/10/21 04:23:18;;;;;;;12.33;7.87;;;;;;;;;;5058819;27;90216;-53
2023/10/21 04:25:47;;;;;;;14.47;9.57;;;;;;;;;;5061314;27;89820;-52
2023/10/21 04:28:15;;;;;;;17.03;10.50;;;;;;;;;;5063535;27;87290;-52
2023/10/21 04:30:45;;;;;;;15.10;8.77;;;;;;;;;;5062832;27;89683;-52
2023/10/21 04:33:14;;;;;;;13.53;8.57;;;;;;;;;;5063542;27;88871;-53
2023/10/21 04:35:44;;;;;;;15.03;8.53;;;;;;;;;;5063425;27;88737;-52
2023/10/21 04:38:13;;;;;;;12.90;8.67;;;;;;;;;;5063552;27;87577;-52
2023/10/21 04:40:42;;;;;;;14.77;9.67;;;;;;;;;;5063688;27;89601;-52
2023/10/21 04:43:11;;;;;;;12.50;8.37;;;;;;;;;;5063164;27;88122;-52
2023/10/21 04:45:39;;;;;;;13.50;8.63;;;;;;;;;;5062811;27;88401;-52
2023/10/21 04:48:08;;;;;;;13.47;7.57;;;;;;;;;;5063140;27;87982;-52
2023/10/21 04:50:36;;;;;;;17.50;9.80;;;;;;;;;;5062211;27;87297;-52
2023/10/21 04:53:06;;;;;;;11.43;7.60;;;;;;;;;;5062955;27;88027;-52
2023/10/21 04:55:34;;;;;;;15.90;8.97;;;;;;;;;;5063274;27;88789;-52
2023/10/21 04:58:04;;;;;;;12.10;7.60;;;;;;;;;;5063213;27;87578;-52
2023/10/21 05:00:33;;;;;;;12.37;7.47;;;;;;;;;;5063097;27;89666;-52
2023/10/21 05:03:01;;;;;;;10.83;7.57;;;;;;;;;;5062309;27;88075;-52
2023/10/21 05:05:30;;;;;;;13.30;7.63;;;;;;;;;;5062984;27;88737;-52
2023/10/21 05:07:58;;;;;;;12.20;8.57;;;;;;;;;;5063088;27;87624;-51
2023/10/21 05:10:28;;;;;;;13.70;7.77;;;;;;;;;;5062904;27;88588;-52
2023/10/21 05:12:56;;;;;;;11.07;7.70;;;;;;;;;;5058212;27;89994;-52
2023/10/21 05:15:25;;;;;;;13.17;7.50;;;;;;;;;;5059458;27;89786;-52
2023/10/21 05:17:54;;;;;;;13.93;7.13;;;;;;;;;;5060280;27;88004;-52
2023/10/21 05:20:22;;;;;;;13.23;8.20;;;;;;;;;;5059735;27;87987;-52
2023/10/21 05:22:50;;;;;;;11.90;6.80;;;;;;;;;;5059529;27;89010;-53
2023/10/21 05:25:20;;;;;;;8.73;5.33;;;;;;;;;;5059469;27;87572;-53
2023/10/21 05:27:50;;;;;;;11.73;6.77;;;;;;;;;;5060301;27;87598;-52
2023/10/21 05:30:18;;;;;;;7.20;6.03;;;;;;;;;;5059790;27;88510;-52
2023/10/21 05:32:47;;;;;;;14.83;7.80;;;;;;;;;;5059258;27;88463;-52
2023/10/21 05:35:15;;;;;;;11.17;7.57;;;;;;;;;;5059606;27;87630;-52
2023/10/21 05:37:43;;;;;;;14.73;6.57;;;;;;;;;;5058812;27;88153;-52
2023/10/21 05:40:12;;;;;;;11.17;6.80;;;;;;;;;;5059334;27;89678;-52
2023/10/21 05:42:41;;;;;;;10.40;6.23;;;;;;;;;;5058748;27;89242;-53
2023/10/21 05:45:11;;;;;;;11.00;6.60;;;;;;;;;;5059209;27;88911;-52
2023/10/21 05:47:39;;;;;;;12.43;7.10;;;;;;;;;;5059370;27;87732;-52
2023/10/21 05:50:08;;;;;;;11.70;6.60;;;;;;;;;;5058964;27;90163;-52
2023/10/21 05:52:36;;;;;;;10.30;6.83;;;;;;;;;;5058909;27;89153;-53
2023/10/21 05:55:05;;;;;;;9.23;6.13;;;;;;;;;;5059335;27;87969;-53
2023/10/21 05:57:33;;;;;;;10.37;6.17;;;;;;;;;;5058986;27;87678;-52
2023/10/21 06:00:05;;;;;;;10.63;6.47;;;;;;;;;;5058938;27;89636;-51
2023/10/21 06:02:35;;;;;;;11.90;6.43;;;;;;;;;;5058089;27;90216;-52
2023/10/21 06:05:05;;;;;;;8.73;5.80;;;;;;;;;;5058793;27;89926;-54
2023/10/21 06:07:33;;;;;;;13.63;7.13;;;;;;;;;;5058866;27;88237;-52
2023/10/21 06:10:02;;;;;;;10.67;7.00;;;;;;;;;;5058915;27;88333;-52
2023/10/21 06:12:32;;;;;;;11.63;7.10;;;;;;;;;;5058247;27;89416;-52
2023/10/21 06:15:01;;;;;;;10.70;6.43;;;;;;;;;;5059001;27;88793;-53
2023/10/21 06:17:29;;;;;;;9.13;5.13;;;;;;;;;;5057276;27;88123;-52
2023/10/21 06:19:59;;;;;;;6.93;5.93;;;;;;;;;;5056710;27;89723;-52
2023/10/21 06:22:27;;;;;;;10.30;6.33;;;;;;;;;;5061637;27;89064;-52
2023/10/21 06:24:56;;;;;;;11.80;5.50;;;;;;;;;;5061256;27;88843;-53
2023/10/21 06:27:24;;;;;;;6.90;5.67;;;;;;;;;;5061518;27;87951;-52
2023/10/21 06:29:52;;;;;;;7.83;5.13;;;;;;;;;;5060865;27;89838;-53
2023/10/21 06:32:21;;;;;;;9.17;6.00;;;;;;;;;;5060945;27;88997;-52
2023/10/21 06:34:50;;;;;;;6.47;4.90;;;;;;;;;;5061451;27;88225;-53
2023/10/21 06:37:19;;;;;;;8.63;5.93;;;;;;;;;;5061517;27;87657;-52
2023/10/21 06:39:48;;;;;;;8.23;5.03;;;;;;;;;;5061506;27;89589;-52
2023/10/21 06:42:16;;;;;;;7.43;5.00;;;;;;;;;;5061202;27;88031;-52
2023/10/21 06:44:45;;;;;;;9.50;5.23;;;;;;;;;;5061057;27;87957;-52
2023/10/21 06:47:13;;;;;;;7.50;5.20;;;;;;;;;;5061707;27;87646;-53
2023/10/21 06:49:42;;;;;;;7.53;5.17;;;;;;;;;;5061035;27;87352;-53
2023/10/21 06:52:10;;;;;;;6.43;4.90;;;;;;;;;;5060556;27;90146;-52
2023/10/21 06:54:40;;;;;;;7.40;4.33;;;;;;;;;;5061467;27;89614;-52
2023/10/21 06:57:08;;;;;;;9.03;5.40;;;;;;;;;;5060988;27;87725;-52
2023/10/21 06:59:37;;;;;;;9.70;5.33;;;;;;;;;;5060251;27;89967;-52
2023/10/21 07:02:05;;;;;;;9.10;4.37;;;;;;;;;;5061107;27;87978;-52
2023/10/21 07:04:33;;;;;;;8.37;5.47;;;;;;;;;;5061059;27;88345;-52
2023/10/21 07:07:05;;;;;;;8.07;4.33;;;;;;;;;;5060933;27;87353;-52
2023/10/21 07:09:34;;;;;;;6.57;4.47;;;;;;;;;;5061038;27;88542;-52
2023/10/21 07:12:04;;;;;;;6.13;4.67;;;;;;;;;;5059167;27;87681;-51
2023/10/21 07:14:33;;;;;;;4.97;3.53;;;;;;;;;;5060165;27;88601;-52
2023/10/21 07:17:01;;;;;;;5.90;4.23;;;;;;;;;;5060213;27;87873;-52
2023/10/21 07:19:30;;;;;;;7.50;4.40;;;;;;;;;;5060244;27;88489;-59
2023/10/21 07:21:59;;;;;;;9.20;5.70;;;;;;;;;;5060366;27;87694;-52
2023/10/21 07:24:27;;;;;;;10.07;6.17;;;;;;;;;;5060720;27;87550;-53
2023/10/21 07:26:56;;;;;;;7.17;4.67;;;;;;;;;;5077968;27;87606;-52
2023/10/21 07:29:25;;;;;;;7.10;4.77;;;;;;;;;;5060929;27;88541;-54
2023/10/21 07:31:54;;;;;;;6.17;4.10;;;;;;;;;;5060078;27;87502;-57
2023/10/21 07:34:23;;;;;;;9.80;5.27;;;;;;;;;;5059323;27;89035;-54
2023/10/21 07:36:51;;;;;;;8.23;4.33;;;;;;;;;;5044823;27;87702;-54
2023/10/21 07:39:19;;;;;;;7.07;4.57;;;;;;;;;;5051413;27;88479;-52
2023/10/21 07:41:48;;;;;;;7.60;4.03;;;;;;;;;;5053869;27;89047;-53
2023/10/21 07:44:16;;;;;;;7.77;4.53;;;;;;;;;;5060395;27;89568;-52
2023/10/21 07:46:50;;;;;;;7.27;3.70;;;;;;;;;;5060541;27;87709;-52
2023/10/21 07:49:19;;;;;;;4.40;2.77;;;;;;;;;;5060660;27;88467;-52
2023/10/21 07:51:48;;;;;;;5.17;3.53;;;;;;;;;;5060076;27;89029;-52
2023/10/21 07:54:17;;;;;;;8.00;2.60;;;;;;;;;;5060307;27;87774;-53
2023/10/21 07:56:46;;;;;;;3.97;2.03;;;;;;;;;;5061574;27;87665;-52
2023/10/21 07:59:17;;;;;;;2.83;2.30;;;;;;;;;;5063790;27;89694;-52
2023/10/21 08:01:46;;;;;;;5.37;2.47;;;;;;;;;;5063948;27;89159;-53
2023/10/21 08:04:16;;;;;;;2.50;2.03;;;;;;;;;;5063853;27;87839;-53
2023/10/21 08:06:46;;;;;;;2.80;2.40;;;;;;;;;;5063929;27;87982;-52
2023/10/21 08:09:15;;;;;;;4.00;2.60;;;;;;;;;;5063877;27;88613;-53
2023/10/21 08:11:44;;;;;;;2.80;2.40;;;;;;;;;;5063879;27;88038;-52
2023/10/21 08:14:13;;;;;;;1.80;1.53;;;;;;;;;;5063653;27;87757;-52
2023/10/21 08:16:42;;;;;;;2.03;1.87;;;;;;;;;;5063614;27;87677;-53
2023/10/21 08:19:11;;;;;;;2.17;1.70;;;;;;;;;;5063641;27;88205;-53
2023/10/21 08:21:41;;;;;;;3.07;2.30;;;;;;;;;;5063569;27;89332;-52
2023/10/21 08:24:11;;;;;;;1.83;1.63;;;;;;;;;;5063965;27;87911;-52
2023/10/21 08:26:39;;;;;;;1.57;1.47;;;;;;;;;;5062999;27;88261;-52
2023/10/21 08:29:10;;;;;;;1.63;1.37;;;;;;;;;;5063581;27;87516;-52
2023/10/21 08:31:38;;;;;;;2.03;1.40;;;;;;;;;;5062997;27;88919;-52
2023/10/21 08:34:09;;;;;;;2.70;1.33;;;;;;;;;;5063282;27;88752;-53
2023/10/21 08:36:38;;;;;;;3.00;1.80;;;;;;;;;;5063698;27;87605;-52
2023/10/21 08:39:08;;;;;;;3.10;1.43;;;;;;;;;;5063327;27;87328;-52
2023/10/21 08:41:36;;;;;;;2.23;1.40;;;;;;;;;;5063057;27;89023;-52
2023/10/21 08:44:05;;;;;;;1.23;1.10;;;;;;;;;;5061667;27;88938;-53
2023/10/21 08:46:34;;;;;;;1.47;1.23;;;;;;;;;;5063343;27;87434;-52
2023/10/21 08:49:04;;;;;;;1.23;1.13;;;;;;;;;;5063311;27;89718;-53
2023/10/21 08:51:32;;;;;;;3.23;1.27;;;;;;;;;;5063087;27;88027;-53
2023/10/21 08:54:03;;;;;;;1.23;1.07;;;;;;;;;;5062998;27;87734;-52
2023/10/21 08:56:32;;;;;;;1.63;1.10;;;;;;;;;;5061522;27;87793;-52
2023/10/21 08:59:01;;;;;;;4.43;1.20;;;;;;;;;;5058670;27;89537;-53
2023/10/21 09:01:31;;;;;;;1.37;1.10;;;;;;;;;;5049914;27;89450;-54
2023/10/21 09:03:59;;;;;;;5.07;0.93;;;;;;;;;;5062183;27;88995;-52
2023/10/21 09:06:28;;;;;;;1.70;0.97;;;;;;;;;;5061776;27;87416;-51
2023/10/21 09:08:57;;;;;;;0.70;0.70;;;;;;;;;;5060629;27;88618;-51
2023/10/21 09:11:26;;;;;;;0.87;0.73;;;;;;;;;;5061184;27;89335;-54
2023/10/21 09:13:58;;;;;;;1.43;0.80;;;;;;;;;;5058455;27;87889;-51
2023/10/21 09:16:27;;;;;;;3.23;0.97;;;;;;;;;;5051251;27;89295;-51
2023/10/21 09:18:59;;;;;;;0.57;0.50;;;;;;;;;;5048969;27;89328;-52
2023/10/21 09:21:32;;;;;;;1.40;0.87;;;;;;;;;;5062523;27;88992;-51
2023/10/21 09:24:01;;;;;;;0.77;0.77;;;;;;;;;;5062318;27;89382;-52
2023/10/21 09:26:36;;;;;;;1.20;0.90;;;;;;;;;;5062518;27;87641;-52
2023/10/21 09:29:11;;;;;;;0.63;0.63;;;;;;;;;;5062674;27;89214;-53
2023/10/21 09:31:47;;;;;;;2.80;0.97;;;;;;;;;;5062587;27;89398;-52
2023/10/21 09:34:26;;;;;;;1.80;0.90;;;;;;;;;;5062532;27;88878;-52
2023/10/21 09:36:54;;;;;;;4.13;0.50;;;;;;;;;;5062914;27;87276;-52
2023/10/21 09:39:23;;;;;;;1.50;0.67;;;;;;;;;;5062586;27;89589;-52
2023/10/21 09:41:52;;;;;;;0.67;0.60;;;;;;;;;;5062778;27;89134;-53
2023/10/21 09:44:21;;;;;;;0.53;0.53;;;;;;;;;;5062204;27;88651;-52
2023/10/21 09:46:50;;;;;;;0.67;0.60;;;;;;;;;;5062282;27;87992;-53
2023/10/21 09:49:18;;;;;;;0.40;0.40;;;;;;;;;;5062392;27;89615;-52
2023/10/21 09:51:52;;;;;;;0.87;0.53;;;;;;;;;;5062450;27;87359;-51
2023/10/21 09:54:22;;;;;;;0.30;0.30;;;;;;;;;;5062208;27;88972;-55
2023/10/21 09:56:53;;;;;;;6.77;0.70;;;;;;;;;;5062279;27;87719;-53
2023/10/21 09:59:24;;;;;;;0.33;0.30;;;;;;;;;;5062326;27;89624;-52
2023/10/21 10:01:53;;;;;;;3.40;0.90;;;;;;;;;;5062241;27;89048;-52
2023/10/21 10:04:22;;;;;;;0.43;0.43;;;;;;;;;;5062281;27;87626;-51
2023/10/21 10:06:58;;;;;;;1.23;0.43;;;;;;;;;;5062398;27;87442;-52
2023/10/21 10:09:33;;;;;;;0.37;0.37;;;;;;;;;;5061884;27;89794;-52
2023/10/21 10:12:02;;;;;;;0.30;0.30;;;;;;;;;;5061492;27;89138;-52
2023/10/21 10:14:33;;;;;;;0.20;0.20;;;;;;;;;;5062106;27;87414;-52
2023/10/21 10:17:05;;;;;;;0.90;0.40;;;;;;;;;;5062088;27;87297;-52
2023/10/21 10:19:38;;;;;;;0.47;0.47;;;;;;;;;;5060922;27;89714;-53
2023/10/21 10:22:24;;;;;;;1.10;0.30;;;;;;;;;;5062029;27;89076;-52
2023/10/21 10:24:55;;;;;;;5.90;1.30;;;;;;;;;;5061819;27;88852;-53
2023/10/21 10:27:26;;;;;;;1.13;0.40;;;;;;;;;;5061288;27;87510;-52
2023/10/21 10:29:57;;;;;;;0.50;0.50;;;;;;;;;;5062098;27;88345;-51
2023/10/21 10:32:29;;;;;;;0.83;0.50;;;;;;;;;;5061576;27;88295;-52
2023/10/21 10:34:58;;;;;;;0.30;0.30;;;;;;;;;;5061695;27;87798;-53
2023/10/21 10:37:31;;;;;;;0.40;0.40;;;;;;;;;;5061361;27;87658;-54
2023/10/21 10:39:59;;;;;;;0.80;0.47;;;;;;;;;;5061952;27;88521;-51
2023/10/21 10:42:29;;;;;;;0.43;0.43;;;;;;;;;;5061639;27;89180;-53
2023/10/21 10:44:59;;;;;;;0.87;0.50;;;;;;;;;;5061607;27;88922;-54
2023/10/21 10:47:28;;;;;;;1.17;0.40;;;;;;;;;;5061913;27;87399;-54
2023/10/21 10:49:57;;;;;;;0.50;0.50;;;;;;;;;;5061506;27;89368;-53
2023/10/21 10:52:31;;;;;;;0.70;0.57;;;;;;;;;;5047976;27;89767;-54
2023/10/21 10:54:59;;;;;;;3.30;0.97;;;;;;;;;;5041390;27;87374;-52
2023/10/21 10:57:28;;;;;;;0.50;0.50;;;;;;;;;;5041181;27;87767;-52
2023/10/21 10:59:58;;;;;;;1.10;0.57;;;;;;;;;;5041077;27;88512;-52
2023/10/21 11:02:28;;;;;;;0.73;0.60;;;;;;;;;;5040590;27;90242;-52
2023/10/21 11:04:58;;;;;;;0.30;0.30;;;;;;;;;;5041052;27;89820;-52
2023/10/21 11:07:30;;;;;;;0.60;0.50;;;;;;;;;;5040743;27;87607;-52
2023/10/21 11:10:01;;;;;;;0.50;0.47;;;;;;;;;;5041090;27;89305;-52
2023/10/21 11:12:30;;;;;;;0.40;0.40;;;;;;;;;;5040950;27;88876;-52
2023/10/21 11:15:01;;;;;;;1.60;0.60;;;;;;;;;;5040781;27;88882;-52
2023/10/21 11:17:29;;;;;;;2.97;0.27;;;;;;;;;;5041052;28;87604;-52
2023/10/21 11:19:58;;;;;;;1.40;0.90;;;;;;;;;;5041128;27;87450;-52
2023/10/21 11:22:30;;;;;;;1.00;0.43;;;;;;;;;;5040685;28;89095;-52
2023/10/21 11:24:59;;;;;;;3.30;0.80;;;;;;;;;;5040810;27;88741;-53
2023/10/21 11:27:27;;;;;;;0.87;0.87;;;;;;;;;;5040239;27;87910;-52
2023/10/21 11:29:56;;;;;;;1.57;0.80;;;;;;;;;;5040651;27;89540;-52
2023/10/21 11:32:29;;;;;;;0.40;0.40;;;;;;;;;;5043403;27;88034;-52
2023/10/21 11:35:01;;;;;;;0.57;0.50;;;;;;;;;;5044082;27;87698;-52
2023/10/21 11:37:30;;;;;;;0.57;0.57;;;;;;;;;;5050089;27;87856;-52
2023/10/21 11:39:58;;;;;;;1.57;0.70;;;;;;;;;;5061541;27;89343;-52
2023/10/21 11:42:27;;;;;;;0.43;0.43;;;;;;;;;;5061609;27;89302;-52
2023/10/21 11:44:56;;;;;;;1.50;0.67;;;;;;;;;;5054851;27;89737;-53
2023/10/21 11:47:25;;;;;;;3.70;0.83;;;;;;;;;;5041656;27;88213;-53
2023/10/21 11:49:55;;;;;;;3.63;0.63;;;;;;;;;;5040338;27;89934;-53
2023/10/21 11:52:24;;;;;;;1.43;0.60;;;;;;;;;;5040485;28;90704;-53
2023/10/21 11:57:56;;;;;;;1.40;0.57;;;;;;;;;;5041022;27;87615;-52
2023/10/21 12:20:29;;;;;;;1.27;0.43;;;;;;;;;;5059664;27;88029;-52
2023/10/21 12:23:10;;;;;;;2.60;0.60;;;;;;;;;;5060746;27;88577;-53
2023/10/21 12:40:28;;;;;;;0.73;0.40;;;;;;;;;;5024779;27;89268;-53
2023/10/21 12:43:19;;;;;;;1.37;0.67;;;;;;;;;;5039121;27;87595;-52
2023/10/21 12:45:45;;;;;;;0.57;0.47;;;;;;;;;;5039802;27;87413;-52
2023/10/21 12:48:13;;;;;;;0.83;0.83;;;;;;;;;;5039612;28;90123;-52
2023/10/21 12:50:42;;;;;;;0.40;0.40;;;;;;;;;;5043379;27;89779;-52
2023/10/21 12:53:11;;;;;;;0.50;0.50;;;;;;;;;;5060578;27;87728;-52
2023/10/21 12:55:40;;;;;;;2.43;0.50;;;;;;;;;;5060278;27;89681;-52
2023/10/21 12:58:09;;;;;;;0.40;0.40;;;;;;;;;;5059952;27;89132;-52
2023/10/21 13:00:37;;;;;;;1.87;0.90;;;;;;;;;;5060104;27;88805;-53
2023/10/21 13:03:10;;;;;;;0.37;0.37;;;;;;;;;;5060196;27;87657;-53
2023/10/21 13:05:39;;;;;;;0.80;0.60;;;;;;;;;;5060281;27;88816;-52
2023/10/21 13:08:09;;;;;;;1.53;0.50;;;;;;;;;;5059658;27;89190;-52
2023/10/21 13:10:37;;;;;;;3.00;0.70;;;;;;;;;;5059650;27;88887;-52
2023/10/21 13:13:08;;;;;;;0.63;0.50;;;;;;;;;;5059637;27;88969;-52
2023/10/21 13:15:37;;;;;;;2.43;1.23;;;;;;;;;;5060266;27;89610;-53
2023/10/21 13:18:07;;;;;;;1.47;0.60;;;;;;;;;;5059653;27;88371;-52
2023/10/21 13:20:36;;;;;;;0.80;0.77;;;;;;;;;;5059753;27;87889;-53
2023/10/21 13:23:05;;;;;;;0.97;0.80;;;;;;;;;;5059893;27;88435;-52
2023/10/21 13:25:35;;;;;;;1.13;0.67;;;;;;;;;;5058660;27;89655;-52
2023/10/21 13:28:05;;;;;;;3.27;1.23;;;;;;;;;;5059517;27;89125;-52
2023/10/21 13:30:35;;;;;;;3.00;0.83;;;;;;;;;;5059771;27;88864;-53
2023/10/21 13:33:06;;;;;;;1.43;0.90;;;;;;;;;;5059673;27;87725;-53
2023/10/21 13:35:35;;;;;;;0.90;0.50;;;;;;;;;;5059554;27;89571;-53
2023/10/21 13:38:04;;;;;;;0.93;0.70;;;;;;;;;;5058325;27;89014;-52
2023/10/21 13:40:32;;;;;;;4.00;1.33;;;;;;;;;;5059578;27;89950;-52
2023/10/21 13:43:03;;;;;;;2.70;0.90;;;;;;;;;;5059702;27;87618;-52
2023/10/21 13:45:32;;;;;;;2.33;0.83;;;;;;;;;;5059293;27;89702;-53
2023/10/21 13:48:08;;;;;;;2.67;0.97;;;;;;;;;;5059369;27;89416;-52
2023/10/21 13:50:37;;;;;;;0.67;0.57;;;;;;;;;;5058716;27;88678;-52
2023/10/21 13:53:11;;;;;;;0.93;0.50;;;;;;;;;;5059468;27;87696;-52
2023/10/21 13:55:43;;;;;;;0.93;0.60;;;;;;;;;;5057935;27;87363;-52
2023/10/21 13:58:11;;;;;;;3.17;1.30;;;;;;;;;;5058970;27;87633;-52
2023/10/21 14:00:40;;;;;;;5.17;1.10;;;;;;;;;;5058651;27;88736;-52
2023/10/21 14:03:11;;;;;;;2.20;0.93;;;;;;;;;;5058837;27;87981;-52
2023/10/21 14:05:41;;;;;;;3.20;1.10;;;;;;;;;;5059078;27;88582;-52
2023/10/21 14:08:10;;;;;;;2.10;1.07;;;;;;;;;;5059140;27;89078;-53
2023/10/21 14:10:39;;;;;;;3.13;1.30;;;;;;;;;;5050661;27;88382;-52
2023/10/21 14:13:15;;;;;;;3.07;1.30;;;;;;;;;;5043264;27;87968;-53
2023/10/21 14:15:44;;;;;;;4.60;1.50;;;;;;;;;;5058435;27;89754;-52
2023/10/21 14:18:14;;;;;;;1.40;1.10;;;;;;;;;;5047765;27;89281;-53
2023/10/21 14:20:43;;;;;;;2.23;1.10;;;;;;;;;;5038766;27;87908;-52
2023/10/21 14:23:12;;;;;;;1.63;1.00;;;;;;;;;;5038797;28;87768;-53
2023/10/21 14:25:42;;;;;;;2.73;1.53;;;;;;;;;;5039638;27;88538;-52
2023/10/21 14:28:12;;;;;;;3.30;1.30;;;;;;;;;;5058120;27;89000;-53
2023/10/21 14:30:42;;;;;;;2.53;1.73;;;;;;;;;;5057719;27;89805;-52
2023/10/21 14:33:12;;;;;;;2.43;1.20;;;;;;;;;;5058846;27;87827;-52
2023/10/21 14:35:42;;;;;;;3.00;1.60;;;;;;;;;;5058470;27;87424;-52
2023/10/21 14:38:10;;;;;;;1.73;1.17;;;;;;;;;;5057979;27;88689;-53
2023/10/21 14:40:38;;;;;;;2.90;1.47;;;;;;;;;;5058075;27;88897;-52
2023/10/21 14:43:07;;;;;;;2.93;1.63;;;;;;;;;;5052935;27;87676;-58
2023/10/21 14:45:37;;;;;;;2.13;1.30;;;;;;;;;;5058149;27;89353;-55
2023/10/21 14:48:07;;;;;;;4.53;2.00;;;;;;;;;;5058339;27;88080;-60
2023/10/21 14:50:35;;;;;;;1.83;1.47;;;;;;;;;;5057788;27;89108;-60
2023/10/21 14:53:07;;;;;;;7.00;1.90;;;;;;;;;;5057553;27;88838;-54
2023/10/21 14:55:35;;;;;;;3.57;2.13;;;;;;;;;;5058033;27;88499;-58
2023/10/21 14:58:22;;;;;;;3.70;1.57;;;;;;;;;;5057198;27;89200;-53
2023/10/21 15:00:50;;;;;;;4.67;1.57;;;;;;;;;;5057460;27;87766;-54
2023/10/21 15:03:20;;;;;;;3.17;1.70;;;;;;;;;;5058256;27;87685;-58
2023/10/21 15:05:49;;;;;;;2.77;1.80;;;;;;;;;;5057425;27;89852;-55
2023/10/21 15:08:20;;;;;;;2.43;2.07;;;;;;;;;;5057750;27;89507;-58
2023/10/21 15:10:50;;;;;;;2.90;2.60;;;;;;;;;;5057859;27;89062;-57
2023/10/21 15:13:22;;;;;;;4.80;2.43;;;;;;;;;;5057471;27;87457;-56
2023/10/21 15:15:52;;;;;;;3.07;2.33;;;;;;;;;;5044082;27;89731;-56
2023/10/21 15:18:20;;;;;;;4.87;2.70;;;;;;;;;;5056795;27;88957;-56
2023/10/21 15:20:49;;;;;;;6.30;3.13;;;;;;;;;;5057481;27;89866;-55
2023/10/21 15:23:17;;;;;;;4.57;2.40;;;;;;;;;;5057586;27;87640;-55
2023/10/21 15:25:47;;;;;;;6.53;2.90;;;;;;;;;;5056428;27;89436;-52
2023/10/21 15:28:16;;;;;;;4.97;2.73;;;;;;;;;;5057042;27;89080;-52